createdAt,value
2017-11-23T00:00:28.086Z,12.40
2017-11-23T00:02:56.320Z,12.40
2017-11-23T00:05:23.796Z,12.40
2017-11-23T00:07:51.276Z,12.50
2017-11-23T00:10:18.834Z,12.40
2017-11-23T00:12:46.297Z,12.50
2017-11-23T00:15:14.545Z,12.50
2017-11-23T00:17:42.024Z,12.50
2017-11-23T00:20:09.489Z,12.50
2017-11-23T00:22:36.963Z,12.40
2017-11-23T00:25:05.200Z,12.40
2017-11-23T00:27:32.673Z,12.40
2017-11-23T00:30:00.949Z,12.40
2017-11-23T00:32:30.803Z,12.40
2017-11-23T00:34:58.275Z,12.40
2017-11-23T00:37:25.754Z,12.40
2017-11-23T00:39:53.241Z,12.40
2017-11-23T00:42:20.726Z,12.40
2017-11-23T00:44:48.963Z,12.40
2017-11-23T00:47:16.436Z,12.40
2017-11-23T00:49:43.903Z,12.30
2017-11-23T00:52:11.404Z,12.30
2017-11-23T00:54:38.904Z,12.30
2017-11-23T00:57:06.383Z,12.40
2017-11-23T00:59:33.854Z,12.40
2017-11-23T01:02:02.207Z,12.30
2017-11-23T01:04:31.182Z,12.30
2017-11-23T01:06:58.645Z,12.30
2017-11-23T01:09:26.161Z,12.30
2017-11-23T01:11:53.629Z,12.30
2017-11-23T01:14:21.133Z,12.30
2017-11-23T01:16:50.114Z,12.40
2017-11-23T01:19:17.695Z,12.40
2017-11-23T01:21:51.716Z,12.40
2017-11-23T01:24:19.963Z,12.40
2017-11-23T01:26:47.425Z,12.40
2017-11-23T01:29:14.911Z,12.50
2017-11-23T01:31:43.145Z,12.50
2017-11-23T01:34:10.619Z,12.50
2017-11-23T01:36:38.197Z,12.50
2017-11-23T01:39:05.681Z,12.50
2017-11-23T01:41:33.897Z,12.50
2017-11-23T01:44:01.365Z,12.40
2017-11-23T01:46:28.821Z,12.40
2017-11-23T01:48:56.288Z,12.50
2017-11-23T01:51:23.752Z,12.40
2017-11-23T01:53:51.225Z,12.50
2017-11-23T01:56:18.689Z,12.50
2017-11-23T01:58:46.926Z,12.50
2017-11-23T02:01:14.385Z,12.50
2017-11-23T02:03:42.575Z,12.60
2017-11-23T02:06:10.047Z,12.60
2017-11-23T02:08:37.516Z,12.60
2017-11-23T02:11:05.747Z,12.70
2017-11-23T02:13:33.232Z,12.70
2017-11-23T02:16:00.701Z,12.70
2017-11-23T02:18:28.168Z,12.80
2017-11-23T02:20:56.416Z,12.70
2017-11-23T02:23:23.875Z,12.80
2017-11-23T02:25:51.352Z,12.80
2017-11-23T02:28:18.808Z,12.70
2017-11-23T02:30:46.278Z,12.70
2017-11-23T02:33:14.500Z,12.60
2017-11-23T02:35:41.980Z,12.60
2017-11-23T02:38:09.458Z,12.60
2017-11-23T02:40:37.013Z,12.60
2017-11-23T02:43:05.244Z,12.50
2017-11-23T02:45:32.718Z,12.50
2017-11-23T02:48:00.196Z,12.50
2017-11-23T02:50:27.670Z,12.40
2017-11-23T02:52:55.136Z,12.40
2017-11-23T02:55:23.404Z,12.40
2017-11-23T02:57:50.956Z,12.40
2017-11-23T03:00:18.431Z,12.40
2017-11-23T03:02:45.890Z,12.50
2017-11-23T03:05:14.120Z,12.50
2017-11-23T03:07:41.704Z,12.50
2017-11-23T03:10:09.271Z,12.50
2017-11-23T03:12:37.503Z,12.50
2017-11-23T03:15:04.999Z,12.50
2017-11-23T03:17:32.469Z,12.50
2017-11-23T03:20:00.020Z,12.60
2017-11-23T03:22:27.487Z,12.60
2017-11-23T03:24:55.041Z,12.50
2017-11-23T03:27:22.505Z,12.50
2017-11-23T03:29:50.772Z,12.50
2017-11-23T03:32:18.245Z,12.50
2017-11-23T03:34:45.789Z,12.50
2017-11-23T03:37:14.772Z,12.40
2017-11-23T03:39:42.234Z,12.40
2017-11-23T03:42:09.698Z,12.40
2017-11-23T03:44:37.165Z,12.40
2017-11-23T03:47:04.641Z,12.40
2017-11-23T03:49:32.868Z,12.40
2017-11-23T03:52:00.340Z,12.40
2017-11-23T03:54:27.792Z,12.40
2017-11-23T03:56:55.269Z,12.40
2017-11-23T03:59:22.821Z,12.30
2017-11-23T04:01:50.396Z,12.30
2017-11-23T04:04:17.856Z,12.30
2017-11-23T04:06:45.671Z,12.30
2017-11-23T04:09:13.141Z,12.40
2017-11-23T04:11:40.594Z,12.30
2017-11-23T04:14:08.060Z,12.30
2017-11-23T04:16:35.530Z,12.30
2017-11-23T04:19:03.007Z,12.30
2017-11-23T04:21:31.296Z,12.20
2017-11-23T04:23:58.764Z,12.20
2017-11-23T04:26:26.985Z,12.20
2017-11-23T04:28:54.463Z,12.20
2017-11-23T04:31:21.922Z,12.20
2017-11-23T04:33:49.391Z,12.20
2017-11-23T04:36:17.668Z,12.20
2017-11-23T04:38:46.644Z,12.20
2017-11-23T04:41:14.109Z,12.20
2017-11-23T04:43:41.582Z,12.30
2017-11-23T04:46:09.058Z,12.30
2017-11-23T04:48:37.289Z,12.30
2017-11-23T04:51:04.751Z,12.30
2017-11-23T04:53:32.334Z,12.40
2017-11-23T04:55:59.800Z,12.40
2017-11-23T04:58:28.049Z,12.30
2017-11-23T05:00:55.530Z,12.30
2017-11-23T05:03:24.496Z,12.10
2017-11-23T05:05:51.981Z,12.10
2017-11-23T05:08:20.948Z,12.00
2017-11-23T05:10:48.464Z,12.00
2017-11-23T05:13:16.708Z,12.00
2017-11-23T05:15:44.184Z,12.00
2017-11-23T05:18:12.411Z,12.00
2017-11-23T05:20:39.887Z,12.00
2017-11-23T05:23:07.352Z,12.00
2017-11-23T05:25:34.823Z,11.90
2017-11-23T05:28:02.280Z,11.90
2017-11-23T05:30:29.747Z,12.00
2017-11-23T05:32:58.041Z,11.60
2017-11-23T05:35:25.524Z,11.60
2017-11-23T05:37:52.989Z,11.50
2017-11-23T05:40:20.465Z,11.50
2017-11-23T05:42:47.930Z,11.60
2017-11-23T05:45:15.408Z,11.60
2017-11-23T05:47:42.958Z,11.80
2017-11-23T05:50:10.443Z,11.80
2017-11-23T05:52:38.675Z,12.00
2017-11-23T05:55:06.136Z,11.90
2017-11-23T05:57:33.608Z,12.00
2017-11-23T06:00:02.577Z,12.10
2017-11-23T06:02:30.879Z,12.10
2017-11-23T06:04:58.335Z,12.20
2017-11-23T06:07:25.802Z,12.20
2017-11-23T06:09:55.068Z,12.20
2017-11-23T06:12:22.541Z,12.30
2017-11-23T06:14:49.999Z,12.30
2017-11-23T06:17:17.493Z,12.30
2017-11-23T06:19:45.721Z,12.30
2017-11-23T06:22:13.209Z,12.30
2017-11-23T06:24:40.677Z,12.30
2017-11-23T06:27:08.148Z,12.30
2017-11-23T06:29:36.401Z,12.40
2017-11-23T06:32:05.435Z,12.40
2017-11-23T06:34:32.952Z,12.40
2017-11-23T06:37:00.421Z,12.50
2017-11-23T06:39:27.876Z,12.50
2017-11-23T06:41:55.432Z,12.50
2017-11-23T06:44:22.901Z,12.50
2017-11-23T06:46:50.376Z,12.60
2017-11-23T06:49:18.625Z,12.70
2017-11-23T06:51:46.178Z,12.70
2017-11-23T06:54:13.751Z,12.80
2017-11-23T06:56:41.217Z,12.90
2017-11-23T06:59:09.485Z,13.00
2017-11-23T07:01:37.044Z,13.00
2017-11-23T07:04:05.276Z,13.10
2017-11-23T07:06:32.731Z,13.10
2017-11-23T07:09:00.204Z,13.10
2017-11-23T07:11:27.667Z,13.10
2017-11-23T07:13:55.197Z,13.20
2017-11-23T07:16:22.669Z,13.30
2017-11-23T07:18:50.134Z,13.30
2017-11-23T07:21:17.603Z,13.40
2017-11-23T07:23:45.079Z,13.40
2017-11-23T07:26:12.550Z,13.50
2017-11-23T07:28:40.032Z,13.50
2017-11-23T07:31:08.271Z,13.50
2017-11-23T07:33:35.763Z,13.50
2017-11-23T07:36:03.227Z,13.50
2017-11-23T07:38:31.471Z,13.30
2017-11-23T07:40:59.057Z,13.30
2017-11-23T07:43:27.318Z,13.10
2017-11-23T07:45:55.549Z,13.00
2017-11-23T07:48:23.036Z,13.00
2017-11-23T07:50:50.609Z,12.90
2017-11-23T07:53:18.066Z,12.90
2017-11-23T07:55:45.634Z,12.80
2017-11-23T07:58:13.184Z,12.90
2017-11-23T08:00:40.744Z,12.90
2017-11-23T08:03:08.293Z,12.90
2017-11-23T08:05:35.766Z,13.00
2017-11-23T08:08:04.045Z,13.00
2017-11-23T08:10:31.517Z,13.00
2017-11-23T08:12:59.738Z,13.20
2017-11-23T08:15:27.226Z,13.20
2017-11-23T08:17:54.789Z,13.30
2017-11-23T08:20:22.265Z,13.30
2017-11-23T08:22:49.831Z,13.30
2017-11-23T08:25:17.278Z,13.30
2017-11-23T08:27:44.858Z,13.30
2017-11-23T08:30:13.096Z,13.10
2017-11-23T08:32:40.552Z,13.10
2017-11-23T08:35:08.017Z,13.10
2017-11-23T08:37:35.486Z,13.10
2017-11-23T08:40:02.965Z,13.10
2017-11-23T08:42:31.202Z,13.10
2017-11-23T08:44:58.662Z,13.10
2017-11-23T08:47:26.110Z,13.10
2017-11-23T08:49:54.334Z,13.10
2017-11-23T08:52:22.559Z,13.10
2017-11-23T08:54:55.029Z,13.10
2017-11-23T08:57:22.483Z,13.20
2017-11-23T08:59:49.957Z,13.10
2017-11-23T09:02:17.426Z,13.10
2017-11-23T09:04:44.901Z,13.10
2017-11-23T09:07:12.369Z,13.10
2017-11-23T09:09:40.597Z,13.30
2017-11-23T09:12:13.714Z,13.20
2017-11-23T09:14:41.179Z,13.30
2017-11-23T09:17:09.398Z,13.30
2017-11-23T09:19:36.935Z,13.30
2017-11-23T09:22:05.168Z,13.40
2017-11-23T09:24:32.653Z,13.40
2017-11-23T09:27:00.098Z,13.50
2017-11-23T09:29:27.657Z,13.50
2017-11-23T09:31:55.116Z,13.50
2017-11-23T09:34:22.588Z,13.50
2017-11-23T09:36:50.137Z,13.40
2017-11-23T09:39:19.125Z,13.30
2017-11-23T09:41:46.592Z,13.30
2017-11-23T09:44:14.159Z,13.40
2017-11-23T09:46:41.709Z,13.50
2017-11-23T09:49:09.180Z,13.50
2017-11-23T09:51:37.814Z,13.60
2017-11-23T09:54:05.283Z,13.70
2017-11-23T09:56:32.745Z,13.70
2017-11-23T09:59:00.200Z,13.80
2017-11-23T10:01:27.701Z,13.80
2017-11-23T10:03:55.162Z,13.80
2017-11-23T10:06:22.855Z,13.80
2017-11-23T10:08:50.378Z,13.80
2017-11-23T10:11:17.843Z,13.80
2017-11-23T10:13:45.301Z,13.80
2017-11-23T10:16:12.949Z,13.80
2017-11-23T10:18:40.418Z,13.80
2017-11-23T10:21:09.564Z,13.90
2017-11-23T10:23:37.029Z,13.90
2017-11-23T10:26:04.506Z,13.90
2017-11-23T10:28:31.976Z,14.00
2017-11-23T10:30:59.449Z,14.00
2017-11-23T10:33:26.911Z,14.10
2017-11-23T10:35:58.358Z,14.20
2017-11-23T10:38:27.336Z,14.40
2017-11-23T10:40:54.805Z,14.40
2017-11-23T10:43:22.357Z,14.50
2017-11-23T10:45:49.836Z,14.60
2017-11-23T10:48:29.163Z,14.60
2017-11-23T10:50:56.624Z,14.70
2017-11-23T10:53:24.209Z,14.80
2017-11-23T10:55:51.739Z,14.90
2017-11-23T10:58:19.205Z,15.00
2017-11-23T11:00:46.804Z,15.00
2017-11-23T11:03:14.374Z,15.00
2017-11-23T11:05:41.857Z,14.90
2017-11-23T11:08:09.317Z,14.80
2017-11-23T11:10:37.453Z,14.80
2017-11-23T11:13:04.980Z,14.70
2017-11-23T11:15:32.439Z,14.70
2017-11-23T11:17:59.903Z,14.60
2017-11-23T11:20:28.153Z,14.60
2017-11-23T11:22:55.636Z,14.60
2017-11-23T11:25:23.855Z,14.80
2017-11-23T11:27:51.321Z,14.80
2017-11-23T11:30:18.844Z,14.90
2017-11-23T11:32:47.094Z,15.00
2017-11-23T11:35:15.359Z,15.10
2017-11-23T11:37:42.829Z,15.10
2017-11-23T11:40:10.384Z,15.10
2017-11-23T11:42:37.943Z,15.20
2017-11-23T11:45:05.407Z,15.30
2017-11-23T11:47:32.886Z,15.40
2017-11-23T11:50:01.107Z,15.40
2017-11-23T11:52:28.974Z,15.40
2017-11-23T11:54:56.433Z,15.40
2017-11-23T11:57:23.909Z,15.30
2017-11-23T11:59:51.386Z,15.30
2017-11-23T12:02:18.870Z,15.30
2017-11-23T12:04:47.093Z,15.20
2017-11-23T12:07:14.581Z,15.20
2017-11-23T12:09:42.027Z,15.30
2017-11-23T12:12:11.009Z,15.20
2017-11-23T12:14:38.464Z,15.20
2017-11-23T12:20:19.394Z,15.20
2017-11-23T12:23:11.621Z,15.30
2017-11-23T12:25:51.048Z,15.20
2017-11-23T12:28:30.264Z,15.20
2017-11-23T12:30:57.725Z,15.10
2017-11-23T12:33:25.195Z,15.10
2017-11-23T12:35:52.650Z,15.00
2017-11-23T12:38:20.120Z,15.00
2017-11-23T12:40:47.577Z,15.00
2017-11-23T12:43:15.055Z,15.00
2017-11-23T12:45:43.284Z,14.90
2017-11-23T12:48:10.772Z,14.90
2017-11-23T12:50:38.233Z,14.90
2017-11-23T12:53:05.695Z,14.90
2017-11-23T12:55:33.252Z,14.90
2017-11-23T12:58:00.721Z,14.90
2017-11-23T13:00:28.201Z,14.90
2017-11-23T13:02:56.424Z,14.80
2017-11-23T13:05:23.896Z,14.80
2017-11-23T13:07:51.359Z,14.70
2017-11-23T13:10:18.825Z,14.70
2017-11-23T13:12:46.280Z,14.70
2017-11-23T13:15:13.766Z,14.70
2017-11-23T13:17:42.029Z,14.70
2017-11-23T13:20:09.503Z,14.70
2017-11-23T13:22:37.734Z,14.80
2017-11-23T13:25:05.220Z,14.70
2017-11-23T13:27:32.766Z,14.80
2017-11-23T13:30:01.739Z,14.60
2017-11-23T13:32:30.140Z,14.60
2017-11-23T13:34:57.707Z,14.70
2017-11-23T13:37:25.193Z,14.60
2017-11-23T13:39:53.453Z,14.70
2017-11-23T13:42:21.155Z,14.70
2017-11-23T13:44:48.676Z,14.70
2017-11-23T13:47:16.891Z,14.60
2017-11-23T13:49:44.400Z,14.60
2017-11-23T13:52:13.374Z,14.60
2017-11-23T13:54:40.890Z,14.60
2017-11-23T13:57:08.363Z,14.70
2017-11-23T13:59:36.331Z,14.70
2017-11-23T14:02:03.916Z,14.70
2017-11-23T14:04:31.391Z,14.60
2017-11-23T14:06:58.852Z,14.60
2017-11-23T14:09:26.413Z,14.60
2017-11-23T14:11:53.867Z,14.50
2017-11-23T14:14:22.861Z,14.40
2017-11-23T14:16:51.831Z,14.30
2017-11-23T14:19:19.310Z,14.30
2017-11-23T14:21:46.772Z,14.30
2017-11-23T14:24:14.235Z,14.40
2017-11-23T14:26:41.706Z,14.30
2017-11-23T14:29:10.105Z,14.30
2017-11-23T14:31:38.341Z,14.30
2017-11-23T14:34:05.916Z,14.30
2017-11-23T14:36:33.382Z,14.30
2017-11-23T14:39:00.840Z,14.40
2017-11-23T14:41:28.307Z,14.40
2017-11-23T14:43:56.552Z,14.40
2017-11-23T14:46:24.018Z,14.40
2017-11-23T14:48:51.471Z,14.40
2017-11-23T14:51:19.723Z,14.40
2017-11-23T14:53:47.192Z,14.40
2017-11-23T14:56:14.662Z,14.40
2017-11-23T14:58:42.222Z,14.40
2017-11-23T15:01:09.705Z,14.40
2017-11-23T15:03:37.930Z,14.50
2017-11-23T15:06:05.428Z,14.40
2017-11-23T15:08:32.975Z,14.50
2017-11-23T15:11:00.536Z,14.50
2017-11-23T15:13:27.984Z,14.50
2017-11-23T15:15:55.468Z,14.50
2017-11-23T15:18:22.915Z,14.60
2017-11-23T15:20:50.379Z,14.60
2017-11-23T15:23:17.836Z,14.60
2017-11-23T15:25:45.311Z,14.60
2017-11-23T15:28:12.770Z,14.60
2017-11-23T15:30:41.008Z,14.70
2017-11-23T15:33:08.481Z,14.60
2017-11-23T15:35:35.968Z,14.70
2017-11-23T15:38:04.230Z,14.70
2017-11-23T15:40:32.832Z,14.70
2017-11-23T15:43:01.089Z,14.70
2017-11-23T15:45:28.548Z,14.70
2017-11-23T15:47:56.018Z,14.80
2017-11-23T15:50:24.239Z,14.80
2017-11-23T15:52:51.711Z,14.80
2017-11-23T15:55:19.172Z,14.80
2017-11-23T15:57:46.653Z,14.80
2017-11-23T16:00:15.639Z,14.70
2017-11-23T16:02:43.107Z,14.70
2017-11-23T16:05:10.559Z,14.70
2017-11-23T16:07:38.032Z,14.70
2017-11-23T16:10:05.487Z,14.70
2017-11-23T16:12:32.966Z,14.60
2017-11-23T16:15:01.193Z,14.70
2017-11-23T16:17:28.683Z,14.60
2017-11-23T16:19:56.145Z,14.60
2017-11-23T16:22:23.603Z,14.60
2017-11-23T16:24:51.834Z,14.50
2017-11-23T16:27:19.310Z,14.50
2017-11-23T16:29:46.775Z,14.50
2017-11-23T16:32:14.262Z,14.50
2017-11-23T16:34:42.484Z,14.40
2017-11-23T16:37:10.367Z,14.30
2017-11-23T16:39:37.830Z,14.30
2017-11-23T16:42:11.202Z,14.40
2017-11-23T16:44:44.408Z,14.40
2017-11-23T16:47:17.687Z,14.30
2017-11-23T16:49:50.910Z,14.30
2017-11-23T16:55:25.691Z,14.30
2017-11-23T16:57:59.650Z,14.30
2017-11-23T17:00:27.939Z,14.20
2017-11-23T17:03:01.230Z,14.20
2017-11-23T17:05:34.387Z,14.20
2017-11-23T17:08:21.617Z,14.20
2017-11-23T17:10:54.690Z,14.20
2017-11-23T17:13:28.659Z,14.30
2017-11-23T17:19:19.532Z,14.30
2017-11-23T17:21:47.000Z,14.40
2017-11-23T17:24:14.467Z,14.40
2017-11-23T17:26:41.939Z,14.40
2017-11-23T17:29:09.408Z,14.40
2017-11-23T17:31:36.876Z,14.40
2017-11-23T17:34:04.355Z,14.30
2017-11-23T17:36:31.808Z,14.30
2017-11-23T17:38:59.259Z,14.30
2017-11-23T17:41:26.738Z,14.30
2017-11-23T17:43:54.196Z,14.30
2017-11-23T17:46:22.436Z,14.30
2017-11-23T17:48:49.912Z,14.20
2017-11-23T17:51:17.381Z,14.20
2017-11-23T17:53:44.836Z,14.20
2017-11-23T17:56:12.318Z,14.30
2017-11-23T17:58:40.549Z,14.40
2017-11-23T18:01:08.111Z,14.30
2017-11-23T18:03:35.669Z,14.40
2017-11-23T18:06:03.138Z,14.40
2017-11-23T18:08:30.687Z,14.50
2017-11-23T18:10:58.208Z,14.50
2017-11-23T18:13:25.714Z,14.40
2017-11-23T18:15:53.230Z,14.50
2017-11-23T18:18:20.720Z,14.50
2017-11-23T18:20:48.195Z,14.50
2017-11-23T18:23:15.945Z,14.50
2017-11-23T18:25:45.251Z,14.50
2017-11-23T18:28:12.936Z,14.40
2017-11-23T18:30:41.208Z,14.40
2017-11-23T18:33:08.677Z,14.40
2017-11-23T18:35:36.224Z,14.40
2017-11-23T18:38:04.519Z,14.30
2017-11-23T18:40:31.978Z,14.30
2017-11-23T18:43:00.296Z,14.30
2017-11-23T18:45:27.800Z,14.30
2017-11-23T18:47:55.273Z,14.30
2017-11-23T18:50:23.526Z,14.40
2017-11-23T18:52:51.120Z,14.40
2017-11-23T18:55:19.372Z,14.40
2017-11-23T18:57:46.855Z,14.40
2017-11-23T19:00:15.091Z,14.40
2017-11-23T19:02:42.925Z,14.40
2017-11-23T19:05:10.412Z,14.40
2017-11-23T19:07:38.056Z,14.40
2017-11-23T19:10:05.506Z,14.40
2017-11-23T19:12:32.978Z,14.50
2017-11-23T19:15:00.462Z,14.50
2017-11-23T19:17:29.441Z,14.60
2017-11-23T19:19:56.927Z,14.50
2017-11-23T19:22:24.393Z,14.60
2017-11-23T19:24:51.856Z,14.60
2017-11-23T19:27:20.193Z,14.50
2017-11-23T19:29:47.695Z,14.50
2017-11-23T19:32:15.249Z,14.50
2017-11-23T19:34:42.787Z,14.50
2017-11-23T19:37:11.015Z,14.60
2017-11-23T19:39:38.892Z,14.60
2017-11-23T19:42:06.405Z,14.70
2017-11-23T19:44:33.871Z,14.60
2017-11-23T19:47:02.131Z,14.40
2017-11-23T19:49:29.592Z,14.40
2017-11-23T19:51:57.059Z,14.40
2017-11-23T19:54:24.518Z,14.20
2017-11-23T19:56:51.991Z,14.00
2017-11-23T19:59:20.219Z,13.70
2017-11-23T20:01:47.683Z,13.70
2017-11-23T20:04:15.167Z,13.70
2017-11-23T20:06:42.637Z,13.60
2017-11-23T20:09:11.110Z,13.50
2017-11-23T20:11:38.609Z,13.50
2017-11-23T20:14:06.086Z,13.50
2017-11-23T20:16:33.543Z,13.40
2017-11-23T20:19:01.017Z,13.30
2017-11-23T20:21:28.489Z,13.10
2017-11-23T20:23:55.950Z,13.00
2017-11-23T20:26:23.413Z,13.00
2017-11-23T20:28:50.980Z,12.80
2017-11-23T20:31:18.444Z,12.80
2017-11-23T20:33:46.708Z,12.90
2017-11-23T20:36:14.189Z,12.80
2017-11-23T20:38:42.421Z,12.90
2017-11-23T20:41:09.886Z,12.80
2017-11-23T20:43:37.356Z,12.80
2017-11-23T20:46:04.927Z,12.80
2017-11-23T20:48:33.167Z,12.70
2017-11-23T20:51:00.637Z,12.70
2017-11-23T20:53:28.100Z,12.70
2017-11-23T20:55:57.035Z,12.80
2017-11-23T20:58:24.572Z,12.80
2017-11-23T21:00:52.042Z,12.80
2017-11-23T21:03:20.291Z,12.80
2017-11-23T21:05:49.307Z,12.80
2017-11-23T21:08:16.760Z,12.80
2017-11-23T21:10:44.306Z,12.90
2017-11-23T21:13:11.765Z,12.90
2017-11-23T21:15:39.222Z,13.00
2017-11-23T21:18:08.192Z,12.90
2017-11-23T21:20:35.654Z,12.90
2017-11-23T21:23:03.120Z,12.90
2017-11-23T21:25:30.591Z,13.00
2017-11-23T21:27:58.042Z,13.00
2017-11-23T21:30:25.509Z,12.90
2017-11-23T21:32:53.064Z,12.80
2017-11-23T21:35:20.538Z,12.80
2017-11-23T21:37:48.001Z,12.70
2017-11-23T21:40:16.242Z,12.60
2017-11-23T21:42:43.692Z,12.60
2017-11-23T21:45:11.320Z,12.60
2017-11-23T21:47:38.798Z,12.50
2017-11-23T21:50:06.277Z,12.50
2017-11-23T21:52:33.782Z,12.50
2017-11-23T21:55:01.316Z,12.50
2017-11-23T21:57:30.309Z,12.50
2017-11-23T21:59:58.130Z,12.50
2017-11-23T22:02:25.623Z,12.50
2017-11-23T22:04:53.127Z,12.50
2017-11-23T22:07:21.386Z,12.50
2017-11-23T22:09:48.929Z,12.50
2017-11-23T22:12:16.540Z,12.50
2017-11-23T22:14:44.044Z,12.50
2017-11-23T22:17:11.504Z,12.50
2017-11-23T22:19:39.060Z,12.60
2017-11-23T22:22:06.536Z,12.60
2017-11-23T22:24:33.980Z,12.60
2017-11-23T22:27:02.268Z,12.70
2017-11-23T22:29:29.740Z,12.70
2017-11-23T22:31:57.205Z,12.60
2017-11-23T22:34:25.437Z,12.60
2017-11-23T22:36:52.924Z,12.60
2017-11-23T22:39:20.380Z,12.40
2017-11-23T22:41:47.852Z,12.40
2017-11-23T22:44:16.121Z,12.30
2017-11-23T22:46:43.596Z,12.30
2017-11-23T22:49:11.824Z,12.20
2017-11-23T22:51:39.299Z,12.20
2017-11-23T22:54:08.268Z,12.00
2017-11-23T22:56:35.734Z,12.00
2017-11-23T22:59:03.194Z,11.90
2017-11-23T23:01:30.669Z,11.90
2017-11-23T23:03:58.132Z,11.90
2017-11-23T23:06:25.689Z,11.80
2017-11-23T23:08:53.245Z,11.80
2017-11-23T23:11:22.241Z,11.80
2017-11-23T23:13:49.717Z,11.80
2017-11-23T23:16:17.263Z,11.70
2017-11-23T23:18:44.720Z,11.70
2017-11-23T23:21:12.188Z,11.80
2017-11-23T23:23:39.647Z,11.80
2017-11-23T23:26:07.193Z,11.70
2017-11-23T23:28:34.647Z,11.70
2017-11-23T23:31:02.875Z,11.70
2017-11-23T23:33:30.410Z,11.70
2017-11-23T23:35:58.632Z,11.70
2017-11-23T23:38:26.130Z,11.70
2017-11-23T23:40:55.100Z,11.60
2017-11-23T23:43:22.604Z,11.60
2017-11-23T23:45:51.554Z,11.60
2017-11-23T23:48:19.011Z,11.60
2017-11-23T23:50:46.479Z,11.60
2017-11-23T23:53:13.955Z,11.60
2017-11-23T23:55:41.420Z,11.50
2017-11-23T23:58:09.668Z,11.60
